sensor_id;sensor_type;location;lat;lon;timestamp;temperature;humidity
16140;DHT22;8175;49.326;12.690;2022-08-19T00:00:03;17.90;99.90
16140;DHT22;8175;49.326;12.690;2022-08-19T00:02:29;17.90;99.90
16140;DHT22;8175;49.326;12.690;2022-08-19T00:04:54;17.90;99.90
16140;DHT22;8175;49.326;12.690;2022-08-19T00:07:20;18.00;99.90
16140;DHT22;8175;49.326;12.690;2022-08-19T00:09:46;18.00;99.90
16140;DHT22;8175;49.326;12.690;2022-08-19T00:12:12;18.00;99.90
16140;DHT22;8175;49.326;12.690;2022-08-19T00:14:39;18.00;99.90
16140;DHT22;8175;49.326;12.690;2022-08-19T00:17:07;18.00;99.90
16140;DHT22;8175;49.326;12.690;2022-08-19T00:19:34;18.00;99.90
16140;DHT22;8175;49.326;12.690;2022-08-19T00:22:00;18.00;99.90
16140;DHT22;8175;49.326;12.690;2022-08-19T00:24:25;18.00;99.90
16140;DHT22;8175;49.326;12.690;2022-08-19T00:26:55;18.00;99.90
16140;DHT22;8175;49.326;12.690;2022-08-19T00:29:23;18.00;99.90
16140;DHT22;8175;49.326;12.690;2022-08-19T00:31:50;18.00;99.90
16140;DHT22;8175;49.326;12.690;2022-08-19T00:34:18;18.00;99.90
16140;DHT22;8175;49.326;12.690;2022-08-19T00:36:45;18.00;99.90
16140;DHT22;8175;49.326;12.690;2022-08-19T00:39:11;17.90;99.90
16140;DHT22;8175;49.326;12.690;2022-08-19T00:41:37;17.90;99.90
16140;DHT22;8175;49.326;12.690;2022-08-19T00:44:14;18.00;99.90
16140;DHT22;8175;49.326;12.690;2022-08-19T00:46:43;18.00;99.90
16140;DHT22;8175;49.326;12.690;2022-08-19T00:52:12;18.00;99.90
16140;DHT22;8175;49.326;12.690;2022-08-19T00:54:41;18.00;99.90
16140;DHT22;8175;49.326;12.690;2022-08-19T00:57:11;17.90;99.90
16140;DHT22;8175;49.326;12.690;2022-08-19T00:59:40;17.90;99.90
16140;DHT22;8175;49.326;12.690;2022-08-19T01:02:06;17.90;99.90
16140;DHT22;8175;49.326;12.690;2022-08-19T01:04:32;17.80;99.90
16140;DHT22;8175;49.326;12.690;2022-08-19T01:06:58;17.80;99.90
16140;DHT22;8175;49.326;12.690;2022-08-19T01:09:24;17.80;99.90
16140;DHT22;8175;49.326;12.690;2022-08-19T01:11:51;17.80;99.90
16140;DHT22;8175;49.326;12.690;2022-08-19T01:14:17;17.80;99.90
16140;DHT22;8175;49.326;12.690;2022-08-19T01:16:45;17.80;99.90
16140;DHT22;8175;49.326;12.690;2022-08-19T01:19:33;17.80;99.90
16140;DHT22;8175;49.326;12.690;2022-08-19T01:24:48;17.70;99.90
16140;DHT22;8175;49.326;12.690;2022-08-19T01:27:14;17.70;99.90
16140;DHT22;8175;49.326;12.690;2022-08-19T01:29:41;17.70;99.90
16140;DHT22;8175;49.326;12.690;2022-08-19T01:32:10;17.70;99.90
16140;DHT22;8175;49.326;12.690;2022-08-19T01:34:37;17.80;99.90
16140;DHT22;8175;49.326;12.690;2022-08-19T01:37:08;17.80;99.90
16140;DHT22;8175;49.326;12.690;2022-08-19T01:39:37;17.80;99.90
16140;DHT22;8175;49.326;12.690;2022-08-19T01:42:03;17.80;99.90
16140;DHT22;8175;49.326;12.690;2022-08-19T01:44:29;17.90;99.90
16140;DHT22;8175;49.326;12.690;2022-08-19T01:46:55;17.90;99.90
16140;DHT22;8175;49.326;12.690;2022-08-19T01:49:23;17.90;99.90
16140;DHT22;8175;49.326;12.690;2022-08-19T01:51:50;17.80;99.90
16140;DHT22;8175;49.326;12.690;2022-08-19T01:54:17;17.80;99.90
16140;DHT22;8175;49.326;12.690;2022-08-19T01:56:43;17.80;99.90
16140;DHT22;8175;49.326;12.690;2022-08-19T01:59:16;17.90;99.90
16140;DHT22;8175;49.326;12.690;2022-08-19T02:01:42;17.90;99.90
16140;DHT22;8175;49.326;12.690;2022-08-19T02:04:08;17.90;99.90
16140;DHT22;8175;49.326;12.690;2022-08-19T02:06:34;17.90;99.90
16140;DHT22;8175;49.326;12.690;2022-08-19T02:09:01;17.90;99.90
16140;DHT22;8175;49.326;12.690;2022-08-19T02:11:32;17.90;99.90
16140;DHT22;8175;49.326;12.690;2022-08-19T02:14:00;17.90;99.90
16140;DHT22;8175;49.326;12.690;2022-08-19T02:16:27;17.90;99.90
16140;DHT22;8175;49.326;12.690;2022-08-19T02:18:53;17.90;99.90
16140;DHT22;8175;49.326;12.690;2022-08-19T02:21:21;17.90;99.90
16140;DHT22;8175;49.326;12.690;2022-08-19T02:23:48;18.00;99.90
16140;DHT22;8175;49.326;12.690;2022-08-19T02:26:14;18.00;99.90
16140;DHT22;8175;49.326;12.690;2022-08-19T02:28:41;18.00;99.90
16140;DHT22;8175;49.326;12.690;2022-08-19T02:31:15;18.00;99.90
16140;DHT22;8175;49.326;12.690;2022-08-19T02:33:41;18.00;99.90
16140;DHT22;8175;49.326;12.690;2022-08-19T02:36:08;18.00;99.90
16140;DHT22;8175;49.326;12.690;2022-08-19T02:38:34;18.00;99.90
16140;DHT22;8175;49.326;12.690;2022-08-19T02:41:07;18.00;99.90
16140;DHT22;8175;49.326;12.690;2022-08-19T02:43:35;18.00;99.90
16140;DHT22;8175;49.326;12.690;2022-08-19T02:46:24;18.00;99.90
16140;DHT22;8175;49.326;12.690;2022-08-19T02:49:01;18.00;99.90
16140;DHT22;8175;49.326;12.690;2022-08-19T02:51:33;18.00;99.90
16140;DHT22;8175;49.326;12.690;2022-08-19T02:54:00;18.00;99.90
16140;DHT22;8175;49.326;12.690;2022-08-19T02:56:26;17.90;99.90
16140;DHT22;8175;49.326;12.690;2022-08-19T02:58:53;18.00;99.90
16140;DHT22;8175;49.326;12.690;2022-08-19T03:01:22;18.00;99.90
16140;DHT22;8175;49.326;12.690;2022-08-19T03:03:48;18.00;99.90
16140;DHT22;8175;49.326;12.690;2022-08-19T03:06:15;18.00;99.90
16140;DHT22;8175;49.326;12.690;2022-08-19T03:08:43;18.00;99.90
16140;DHT22;8175;49.326;12.690;2022-08-19T03:11:13;18.00;99.90
16140;DHT22;8175;49.326;12.690;2022-08-19T03:13:40;18.00;99.90
16140;DHT22;8175;49.326;12.690;2022-08-19T03:16:06;18.00;99.90
16140;DHT22;8175;49.326;12.690;2022-08-19T03:18:31;18.00;99.90
16140;DHT22;8175;49.326;12.690;2022-08-19T03:20:57;18.00;99.90
16140;DHT22;8175;49.326;12.690;2022-08-19T03:23:23;18.00;99.90
16140;DHT22;8175;49.326;12.690;2022-08-19T03:25:50;18.00;99.90
16140;DHT22;8175;49.326;12.690;2022-08-19T03:28:16;18.00;99.90
16140;DHT22;8175;49.326;12.690;2022-08-19T03:30:53;18.00;99.90
16140;DHT22;8175;49.326;12.690;2022-08-19T03:33:22;18.00;99.90
16140;DHT22;8175;49.326;12.690;2022-08-19T03:35:58;17.90;99.90
16140;DHT22;8175;49.326;12.690;2022-08-19T03:38:24;18.00;99.90
16140;DHT22;8175;49.326;12.690;2022-08-19T03:40:49;18.00;99.90
16140;DHT22;8175;49.326;12.690;2022-08-19T03:43:15;18.00;99.90
16140;DHT22;8175;49.326;12.690;2022-08-19T03:45:44;17.90;99.90
16140;DHT22;8175;49.326;12.690;2022-08-19T03:48:09;17.90;99.90
16140;DHT22;8175;49.326;12.690;2022-08-19T03:50:39;18.00;99.90
16140;DHT22;8175;49.326;12.690;2022-08-19T03:53:05;17.90;99.90
16140;DHT22;8175;49.326;12.690;2022-08-19T03:55:32;17.90;99.90
16140;DHT22;8175;49.326;12.690;2022-08-19T03:57:58;17.90;99.90
16140;DHT22;8175;49.326;12.690;2022-08-19T04:00:24;17.90;99.90
16140;DHT22;8175;49.326;12.690;2022-08-19T04:02:50;17.90;99.90
16140;DHT22;8175;49.326;12.690;2022-08-19T04:05:15;17.90;99.90
16140;DHT22;8175;49.326;12.690;2022-08-19T04:07:41;17.90;99.90
16140;DHT22;8175;49.326;12.690;2022-08-19T04:10:07;17.90;99.90
16140;DHT22;8175;49.326;12.690;2022-08-19T04:12:33;17.90;99.90
16140;DHT22;8175;49.326;12.690;2022-08-19T04:14:58;17.90;99.90
16140;DHT22;8175;49.326;12.690;2022-08-19T04:17:24;17.90;99.90
16140;DHT22;8175;49.326;12.690;2022-08-19T04:19:50;17.90;99.90
16140;DHT22;8175;49.326;12.690;2022-08-19T04:22:15;17.90;99.90
16140;DHT22;8175;49.326;12.690;2022-08-19T04:24:41;17.90;99.90
16140;DHT22;8175;49.326;12.690;2022-08-19T04:27:07;17.90;99.90
16140;DHT22;8175;49.326;12.690;2022-08-19T04:29:33;17.90;99.90
16140;DHT22;8175;49.326;12.690;2022-08-19T04:31:59;18.00;99.90
16140;DHT22;8175;49.326;12.690;2022-08-19T04:34:27;17.90;99.90
16140;DHT22;8175;49.326;12.690;2022-08-19T04:36:55;17.90;99.90
16140;DHT22;8175;49.326;12.690;2022-08-19T04:39:26;17.90;99.90
16140;DHT22;8175;49.326;12.690;2022-08-19T04:42:13;18.00;99.90
16140;DHT22;8175;49.326;12.690;2022-08-19T04:44:58;17.90;99.90
16140;DHT22;8175;49.326;12.690;2022-08-19T04:47:24;18.00;99.90
16140;DHT22;8175;49.326;12.690;2022-08-19T04:49:49;18.00;99.90
16140;DHT22;8175;49.326;12.690;2022-08-19T04:52:15;18.00;99.90
16140;DHT22;8175;49.326;12.690;2022-08-19T04:54:41;18.00;99.90
16140;DHT22;8175;49.326;12.690;2022-08-19T04:57:08;18.10;99.90
16140;DHT22;8175;49.326;12.690;2022-08-19T04:59:35;18.00;99.90
16140;DHT22;8175;49.326;12.690;2022-08-19T05:02:02;18.00;99.90
16140;DHT22;8175;49.326;12.690;2022-08-19T05:04:28;18.10;99.90
16140;DHT22;8175;49.326;12.690;2022-08-19T05:06:57;18.10;99.90
16140;DHT22;8175;49.326;12.690;2022-08-19T05:09:23;18.10;99.90
16140;DHT22;8175;49.326;12.690;2022-08-19T05:11:48;18.10;99.90
16140;DHT22;8175;49.326;12.690;2022-08-19T05:14:16;18.10;99.90
16140;DHT22;8175;49.326;12.690;2022-08-19T05:16:41;18.20;99.90
16140;DHT22;8175;49.326;12.690;2022-08-19T05:19:07;18.20;99.90
16140;DHT22;8175;49.326;12.690;2022-08-19T05:21:51;18.20;99.90
16140;DHT22;8175;49.326;12.690;2022-08-19T05:24:36;18.20;99.90
16140;DHT22;8175;49.326;12.690;2022-08-19T05:27:01;18.20;99.90
16140;DHT22;8175;49.326;12.690;2022-08-19T05:29:29;18.20;99.90
16140;DHT22;8175;49.326;12.690;2022-08-19T05:31:55;18.10;99.90
16140;DHT22;8175;49.326;12.690;2022-08-19T05:34:23;18.20;99.90
16140;DHT22;8175;49.326;12.690;2022-08-19T05:36:53;18.20;99.90
16140;DHT22;8175;49.326;12.690;2022-08-19T05:39:22;18.20;99.90
16140;DHT22;8175;49.326;12.690;2022-08-19T05:41:53;18.10;99.90
16140;DHT22;8175;49.326;12.690;2022-08-19T05:44:20;18.10;99.90
16140;DHT22;8175;49.326;12.690;2022-08-19T05:46:46;18.10;99.90
16140;DHT22;8175;49.326;12.690;2022-08-19T05:49:13;18.00;99.90
16140;DHT22;8175;49.326;12.690;2022-08-19T05:51:40;18.00;99.90
16140;DHT22;8175;49.326;12.690;2022-08-19T05:54:06;18.00;99.90
16140;DHT22;8175;49.326;12.690;2022-08-19T05:56:33;18.10;99.90
16140;DHT22;8175;49.326;12.690;2022-08-19T05:59:02;18.10;99.90
16140;DHT22;8175;49.326;12.690;2022-08-19T06:01:28;18.10;99.90
16140;DHT22;8175;49.326;12.690;2022-08-19T06:03:53;18.10;99.90
16140;DHT22;8175;49.326;12.690;2022-08-19T06:06:20;18.00;99.90
16140;DHT22;8175;49.326;12.690;2022-08-19T06:08:45;18.10;99.90
16140;DHT22;8175;49.326;12.690;2022-08-19T06:11:20;18.10;99.90
16140;DHT22;8175;49.326;12.690;2022-08-19T06:13:47;18.10;99.90
16140;DHT22;8175;49.326;12.690;2022-08-19T06:16:17;18.20;99.90
16140;DHT22;8175;49.326;12.690;2022-08-19T06:18:51;18.20;99.90
16140;DHT22;8175;49.326;12.690;2022-08-19T06:21:21;18.20;99.90
16140;DHT22;8175;49.326;12.690;2022-08-19T06:23:48;18.30;99.90
16140;DHT22;8175;49.326;12.690;2022-08-19T06:26:15;18.30;99.90
16140;DHT22;8175;49.326;12.690;2022-08-19T06:28:41;18.30;99.90
16140;DHT22;8175;49.326;12.690;2022-08-19T06:31:10;18.40;99.90
16140;DHT22;8175;49.326;12.690;2022-08-19T06:33:39;18.40;99.90
16140;DHT22;8175;49.326;12.690;2022-08-19T06:36:06;18.40;99.90
16140;DHT22;8175;49.326;12.690;2022-08-19T06:38:32;18.40;99.90
16140;DHT22;8175;49.326;12.690;2022-08-19T06:41:05;18.40;99.90
16140;DHT22;8175;49.326;12.690;2022-08-19T06:43:30;18.50;99.90
16140;DHT22;8175;49.326;12.690;2022-08-19T06:45:56;18.70;99.90
16140;DHT22;8175;49.326;12.690;2022-08-19T06:48:22;18.90;99.90
16140;DHT22;8175;49.326;12.690;2022-08-19T06:50:47;19.20;99.90
16140;DHT22;8175;49.326;12.690;2022-08-19T06:53:15;19.60;99.90
16140;DHT22;8175;49.326;12.690;2022-08-19T06:55:41;20.00;99.90
16140;DHT22;8175;49.326;12.690;2022-08-19T06:58:06;20.40;99.90
16140;DHT22;8175;49.326;12.690;2022-08-19T07:00:32;20.70;99.90
16140;DHT22;8175;49.326;12.690;2022-08-19T07:02:59;20.70;99.90
16140;DHT22;8175;49.326;12.690;2022-08-19T07:05:25;20.60;99.90
16140;DHT22;8175;49.326;12.690;2022-08-19T07:07:51;20.30;99.90
16140;DHT22;8175;49.326;12.690;2022-08-19T07:10:17;20.00;99.90
16140;DHT22;8175;49.326;12.690;2022-08-19T07:12:43;20.00;99.90
16140;DHT22;8175;49.326;12.690;2022-08-19T07:15:10;20.00;99.90
16140;DHT22;8175;49.326;12.690;2022-08-19T07:17:36;20.00;99.90
16140;DHT22;8175;49.326;12.690;2022-08-19T07:20:06;20.00;99.90
16140;DHT22;8175;49.326;12.690;2022-08-19T07:22:36;20.00;99.90
16140;DHT22;8175;49.326;12.690;2022-08-19T07:25:02;20.00;99.90
16140;DHT22;8175;49.326;12.690;2022-08-19T07:27:29;20.00;99.90
16140;DHT22;8175;49.326;12.690;2022-08-19T07:29:55;20.30;99.90
16140;DHT22;8175;49.326;12.690;2022-08-19T07:32:20;20.50;99.90
16140;DHT22;8175;49.326;12.690;2022-08-19T07:34:46;20.60;99.90
16140;DHT22;8175;49.326;12.690;2022-08-19T07:37:11;20.60;99.90
16140;DHT22;8175;49.326;12.690;2022-08-19T07:39:38;20.80;99.90
16140;DHT22;8175;49.326;12.690;2022-08-19T07:42:07;21.00;99.90
16140;DHT22;8175;49.326;12.690;2022-08-19T07:44:34;21.20;99.90
16140;DHT22;8175;49.326;12.690;2022-08-19T07:47:00;21.20;99.90
16140;DHT22;8175;49.326;12.690;2022-08-19T07:49:27;21.20;99.90
16140;DHT22;8175;49.326;12.690;2022-08-19T07:51:56;21.10;99.90
16140;DHT22;8175;49.326;12.690;2022-08-19T07:54:25;21.20;99.90
16140;DHT22;8175;49.326;12.690;2022-08-19T07:56:51;21.10;99.90
16140;DHT22;8175;49.326;12.690;2022-08-19T07:59:18;21.20;99.90
16140;DHT22;8175;49.326;12.690;2022-08-19T08:01:45;21.40;99.90
16140;DHT22;8175;49.326;12.690;2022-08-19T08:04:11;21.40;99.90
16140;DHT22;8175;49.326;12.690;2022-08-19T08:06:55;21.60;99.90
16140;DHT22;8175;49.326;12.690;2022-08-19T08:09:42;21.70;99.90
16140;DHT22;8175;49.326;12.690;2022-08-19T08:12:15;21.60;99.90
16140;DHT22;8175;49.326;12.690;2022-08-19T08:14:48;21.50;99.90
16140;DHT22;8175;49.326;12.690;2022-08-19T08:17:16;21.60;99.90
16140;DHT22;8175;49.326;12.690;2022-08-19T08:19:42;21.80;99.90
16140;DHT22;8175;49.326;12.690;2022-08-19T08:22:09;21.70;99.90
16140;DHT22;8175;49.326;12.690;2022-08-19T08:24:55;21.70;99.90
16140;DHT22;8175;49.326;12.690;2022-08-19T08:27:23;21.40;99.90
16140;DHT22;8175;49.326;12.690;2022-08-19T08:29:49;21.30;99.90
16140;DHT22;8175;49.326;12.690;2022-08-19T08:32:15;21.30;99.90
16140;DHT22;8175;49.326;12.690;2022-08-19T08:34:41;21.40;99.90
16140;DHT22;8175;49.326;12.690;2022-08-19T08:37:07;21.50;99.90
16140;DHT22;8175;49.326;12.690;2022-08-19T08:39:32;21.60;99.90
16140;DHT22;8175;49.326;12.690;2022-08-19T08:44:42;21.30;99.90
16140;DHT22;8175;49.326;12.690;2022-08-19T08:47:15;21.30;99.90
16140;DHT22;8175;49.326;12.690;2022-08-19T08:49:56;21.30;99.90
16140;DHT22;8175;49.326;12.690;2022-08-19T08:54:55;21.50;99.90
16140;DHT22;8175;49.326;12.690;2022-08-19T09:00:24;21.90;99.90
16140;DHT22;8175;49.326;12.690;2022-08-19T09:02:52;22.30;99.90
16140;DHT22;8175;49.326;12.690;2022-08-19T09:05:20;22.40;99.90
16140;DHT22;8175;49.326;12.690;2022-08-19T09:10:37;22.40;99.90
16140;DHT22;8175;49.326;12.690;2022-08-19T09:13:42;22.50;99.90
16140;DHT22;8175;49.326;12.690;2022-08-19T09:16:15;22.80;99.90
16140;DHT22;8175;49.326;12.690;2022-08-19T09:18:45;22.90;99.90
16140;DHT22;8175;49.326;12.690;2022-08-19T09:21:13;22.80;99.90
16140;DHT22;8175;49.326;12.690;2022-08-19T09:23:39;23.00;99.90
16140;DHT22;8175;49.326;12.690;2022-08-19T09:26:14;23.10;99.90
16140;DHT22;8175;49.326;12.690;2022-08-19T09:28:42;23.40;99.90
16140;DHT22;8175;49.326;12.690;2022-08-19T09:31:10;23.80;99.90
16140;DHT22;8175;49.326;12.690;2022-08-19T09:33:37;24.30;99.90
16140;DHT22;8175;49.326;12.690;2022-08-19T09:36:10;24.00;99.90
16140;DHT22;8175;49.326;12.690;2022-08-19T09:38:37;24.30;99.90
16140;DHT22;8175;49.326;12.690;2022-08-19T09:41:07;23.90;99.90
16140;DHT22;8175;49.326;12.690;2022-08-19T09:43:33;23.50;99.90
16140;DHT22;8175;49.326;12.690;2022-08-19T09:46:03;23.80;99.90
16140;DHT22;8175;49.326;12.690;2022-08-19T09:48:31;23.70;99.90
16140;DHT22;8175;49.326;12.690;2022-08-19T09:51:08;23.50;99.90
16140;DHT22;8175;49.326;12.690;2022-08-19T09:53:36;23.50;99.90
16140;DHT22;8175;49.326;12.690;2022-08-19T09:56:05;23.40;99.90
16140;DHT22;8175;49.326;12.690;2022-08-19T09:58:32;23.40;99.90
16140;DHT22;8175;49.326;12.690;2022-08-19T10:01:00;23.40;99.90
16140;DHT22;8175;49.326;12.690;2022-08-19T10:03:28;23.10;99.90
16140;DHT22;8175;49.326;12.690;2022-08-19T10:05:54;23.00;99.90
16140;DHT22;8175;49.326;12.690;2022-08-19T10:08:27;22.60;99.90
16140;DHT22;8175;49.326;12.690;2022-08-19T10:10:54;22.30;99.90
16140;DHT22;8175;49.326;12.690;2022-08-19T10:13:22;21.90;99.90
16140;DHT22;8175;49.326;12.690;2022-08-19T10:15:49;21.40;99.90
16140;DHT22;8175;49.326;12.690;2022-08-19T10:18:20;21.10;99.90
16140;DHT22;8175;49.326;12.690;2022-08-19T10:20:47;20.70;99.90
16140;DHT22;8175;49.326;12.690;2022-08-19T10:23:14;20.50;99.90
16140;DHT22;8175;49.326;12.690;2022-08-19T10:25:41;20.40;99.90
16140;DHT22;8175;49.326;12.690;2022-08-19T10:28:08;20.30;99.90
16140;DHT22;8175;49.326;12.690;2022-08-19T10:30:38;20.40;99.90
16140;DHT22;8175;49.326;12.690;2022-08-19T10:33:04;20.50;99.90
16140;DHT22;8175;49.326;12.690;2022-08-19T10:35:30;20.50;99.90
16140;DHT22;8175;49.326;12.690;2022-08-19T10:37:56;20.40;99.90
16140;DHT22;8175;49.326;12.690;2022-08-19T10:40:27;20.40;99.90
16140;DHT22;8175;49.326;12.690;2022-08-19T10:42:53;20.30;99.90
16140;DHT22;8175;49.326;12.690;2022-08-19T10:45:19;20.40;99.90
16140;DHT22;8175;49.326;12.690;2022-08-19T10:47:48;20.40;99.90
16140;DHT22;8175;49.326;12.690;2022-08-19T10:50:14;20.30;99.90
16140;DHT22;8175;49.326;12.690;2022-08-19T10:53:04;20.30;99.90
16140;DHT22;8175;49.326;12.690;2022-08-19T10:55:30;20.30;99.90
16140;DHT22;8175;49.326;12.690;2022-08-19T10:58:16;20.40;99.90
16140;DHT22;8175;49.326;12.690;2022-08-19T11:00:50;20.50;99.90
16140;DHT22;8175;49.326;12.690;2022-08-19T11:03:16;20.70;99.90
16140;DHT22;8175;49.326;12.690;2022-08-19T11:05:41;21.00;99.90
16140;DHT22;8175;49.326;12.690;2022-08-19T11:08:08;21.00;99.90
16140;DHT22;8175;49.326;12.690;2022-08-19T11:10:37;21.10;99.90
16140;DHT22;8175;49.326;12.690;2022-08-19T11:13:06;21.20;99.90
16140;DHT22;8175;49.326;12.690;2022-08-19T11:15:31;21.40;99.90
16140;DHT22;8175;49.326;12.690;2022-08-19T11:17:57;21.80;99.90
16140;DHT22;8175;49.326;12.690;2022-08-19T11:20:23;22.20;99.90
16140;DHT22;8175;49.326;12.690;2022-08-19T11:22:51;22.60;99.90
16140;DHT22;8175;49.326;12.690;2022-08-19T11:25:17;22.90;99.90
16140;DHT22;8175;49.326;12.690;2022-08-19T11:27:43;23.20;99.90
16140;DHT22;8175;49.326;12.690;2022-08-19T11:30:10;23.20;99.90
16140;DHT22;8175;49.326;12.690;2022-08-19T11:32:36;23.50;99.90
16140;DHT22;8175;49.326;12.690;2022-08-19T11:35:02;23.80;99.90
16140;DHT22;8175;49.326;12.690;2022-08-19T11:37:28;24.30;99.90
16140;DHT22;8175;49.326;12.690;2022-08-19T11:39:54;25.10;99.90
16140;DHT22;8175;49.326;12.690;2022-08-19T11:42:20;25.40;99.90
16140;DHT22;8175;49.326;12.690;2022-08-19T11:45:04;25.60;99.90
16140;DHT22;8175;49.326;12.690;2022-08-19T11:47:30;26.30;99.90
16140;DHT22;8175;49.326;12.690;2022-08-19T11:49:56;26.30;99.90
16140;DHT22;8175;49.326;12.690;2022-08-19T11:52:22;26.70;99.90
16140;DHT22;8175;49.326;12.690;2022-08-19T11:54:48;26.80;99.90
16140;DHT22;8175;49.326;12.690;2022-08-19T11:57:13;28.10;99.90
16140;DHT22;8175;49.326;12.690;2022-08-19T11:59:46;29.00;99.90
16140;DHT22;8175;49.326;12.690;2022-08-19T12:02:12;28.10;99.90
16140;DHT22;8175;49.326;12.690;2022-08-19T12:04:40;28.30;99.90
16140;DHT22;8175;49.326;12.690;2022-08-19T12:07:06;28.00;99.90
16140;DHT22;8175;49.326;12.690;2022-08-19T12:09:32;28.20;99.90
16140;DHT22;8175;49.326;12.690;2022-08-19T12:12:00;27.30;99.90
16140;DHT22;8175;49.326;12.690;2022-08-19T12:14:27;26.30;99.90
16140;DHT22;8175;49.326;12.690;2022-08-19T12:16:55;26.00;99.90
16140;DHT22;8175;49.326;12.690;2022-08-19T12:19:22;26.20;99.90
16140;DHT22;8175;49.326;12.690;2022-08-19T12:21:50;26.00;99.90
16140;DHT22;8175;49.326;12.690;2022-08-19T12:24:16;26.00;99.90
16140;DHT22;8175;49.326;12.690;2022-08-19T12:26:48;25.30;99.90
16140;DHT22;8175;49.326;12.690;2022-08-19T12:29:14;25.30;99.90
16140;DHT22;8175;49.326;12.690;2022-08-19T12:31:40;25.40;99.90
16140;DHT22;8175;49.326;12.690;2022-08-19T12:34:06;25.10;99.90
16140;DHT22;8175;49.326;12.690;2022-08-19T12:36:33;24.90;99.90
16140;DHT22;8175;49.326;12.690;2022-08-19T12:38:59;24.80;99.90
16140;DHT22;8175;49.326;12.690;2022-08-19T12:41:25;25.00;99.90
16140;DHT22;8175;49.326;12.690;2022-08-19T12:43:51;25.10;99.90
16140;DHT22;8175;49.326;12.690;2022-08-19T12:46:18;25.30;99.90
16140;DHT22;8175;49.326;12.690;2022-08-19T12:48:45;24.90;99.90
16140;DHT22;8175;49.326;12.690;2022-08-19T12:51:14;24.60;99.90
16140;DHT22;8175;49.326;12.690;2022-08-19T12:53:41;24.60;99.90
16140;DHT22;8175;49.326;12.690;2022-08-19T12:56:08;24.60;99.90
16140;DHT22;8175;49.326;12.690;2022-08-19T12:58:34;24.70;99.90
16140;DHT22;8175;49.326;12.690;2022-08-19T13:01:10;24.80;99.90
16140;DHT22;8175;49.326;12.690;2022-08-19T13:03:36;24.80;99.90
16140;DHT22;8175;49.326;12.690;2022-08-19T13:06:02;24.70;99.90
16140;DHT22;8175;49.326;12.690;2022-08-19T13:08:28;24.30;99.90
16140;DHT22;8175;49.326;12.690;2022-08-19T13:10:53;23.80;99.90
16140;DHT22;8175;49.326;12.690;2022-08-19T13:13:19;23.50;99.90
16140;DHT22;8175;49.326;12.690;2022-08-19T13:15:45;23.20;99.90
16140;DHT22;8175;49.326;12.690;2022-08-19T13:18:11;23.10;99.90
16140;DHT22;8175;49.326;12.690;2022-08-19T13:20:38;23.10;99.90
16140;DHT22;8175;49.326;12.690;2022-08-19T13:23:06;23.30;99.90
16140;DHT22;8175;49.326;12.690;2022-08-19T13:25:32;23.90;99.90
16140;DHT22;8175;49.326;12.690;2022-08-19T13:27:59;24.40;99.90
16140;DHT22;8175;49.326;12.690;2022-08-19T13:30:24;24.70;99.90
16140;DHT22;8175;49.326;12.690;2022-08-19T13:33:09;24.90;99.90
16140;DHT22;8175;49.326;12.690;2022-08-19T13:38:07;24.80;99.90
16140;DHT22;8175;49.326;12.690;2022-08-19T13:40:33;24.50;99.90
16140;DHT22;8175;49.326;12.690;2022-08-19T13:42:59;24.40;99.90
16140;DHT22;8175;49.326;12.690;2022-08-19T13:45:27;24.50;99.90
16140;DHT22;8175;49.326;12.690;2022-08-19T13:47:55;24.50;99.90
16140;DHT22;8175;49.326;12.690;2022-08-19T13:50:25;24.40;99.90
16140;DHT22;8175;49.326;12.690;2022-08-19T13:52:53;24.20;99.90
16140;DHT22;8175;49.326;12.690;2022-08-19T13:55:18;24.30;99.90
16140;DHT22;8175;49.326;12.690;2022-08-19T13:57:45;24.00;99.90
16140;DHT22;8175;49.326;12.690;2022-08-19T14:00:15;23.80;99.90
16140;DHT22;8175;49.326;12.690;2022-08-19T14:02:44;23.50;99.90
16140;DHT22;8175;49.326;12.690;2022-08-19T14:05:12;23.40;99.90
16140;DHT22;8175;49.326;12.690;2022-08-19T14:07:38;23.20;99.90
16140;DHT22;8175;49.326;12.690;2022-08-19T14:10:06;23.00;99.90
16140;DHT22;8175;49.326;12.690;2022-08-19T14:12:33;22.70;99.90
16140;DHT22;8175;49.326;12.690;2022-08-19T14:14:59;22.60;99.90
16140;DHT22;8175;49.326;12.690;2022-08-19T14:17:25;22.50;99.90
16140;DHT22;8175;49.326;12.690;2022-08-19T14:19:56;22.40;99.90
16140;DHT22;8175;49.326;12.690;2022-08-19T14:22:22;22.30;99.90
16140;DHT22;8175;49.326;12.690;2022-08-19T14:24:48;22.20;99.90
16140;DHT22;8175;49.326;12.690;2022-08-19T14:27:15;22.00;99.90
16140;DHT22;8175;49.326;12.690;2022-08-19T14:29:41;21.90;99.90
16140;DHT22;8175;49.326;12.690;2022-08-19T14:32:07;21.70;99.90
16140;DHT22;8175;49.326;12.690;2022-08-19T14:34:32;21.50;99.90
16140;DHT22;8175;49.326;12.690;2022-08-19T14:36:59;21.40;99.90
16140;DHT22;8175;49.326;12.690;2022-08-19T14:39:25;21.30;99.90
16140;DHT22;8175;49.326;12.690;2022-08-19T14:41:50;21.30;99.90
16140;DHT22;8175;49.326;12.690;2022-08-19T14:44:16;21.20;99.90
16140;DHT22;8175;49.326;12.690;2022-08-19T14:46:42;21.20;99.90
16140;DHT22;8175;49.326;12.690;2022-08-19T14:49:09;21.30;99.90
16140;DHT22;8175;49.326;12.690;2022-08-19T14:51:35;21.50;99.90
16140;DHT22;8175;49.326;12.690;2022-08-19T14:54:01;21.80;99.90
16140;DHT22;8175;49.326;12.690;2022-08-19T14:56:28;22.30;99.90
16140;DHT22;8175;49.326;12.690;2022-08-19T14:58:55;22.90;99.90
16140;DHT22;8175;49.326;12.690;2022-08-19T15:01:22;23.40;99.90
16140;DHT22;8175;49.326;12.690;2022-08-19T15:03:48;23.60;99.90
16140;DHT22;8175;49.326;12.690;2022-08-19T15:06:14;23.80;99.90
16140;DHT22;8175;49.326;12.690;2022-08-19T15:08:41;23.90;99.90
16140;DHT22;8175;49.326;12.690;2022-08-19T15:11:10;24.10;99.90
16140;DHT22;8175;49.326;12.690;2022-08-19T15:13:37;24.00;99.90
16140;DHT22;8175;49.326;12.690;2022-08-19T15:16:05;24.10;99.90
16140;DHT22;8175;49.326;12.690;2022-08-19T15:18:31;24.00;99.90
16140;DHT22;8175;49.326;12.690;2022-08-19T15:20:58;23.80;99.90
16140;DHT22;8175;49.326;12.690;2022-08-19T15:23:25;23.80;99.90
16140;DHT22;8175;49.326;12.690;2022-08-19T15:25:50;23.90;99.90
16140;DHT22;8175;49.326;12.690;2022-08-19T15:28:24;24.00;99.90
16140;DHT22;8175;49.326;12.690;2022-08-19T15:30:51;24.00;99.90
16140;DHT22;8175;49.326;12.690;2022-08-19T15:33:17;24.20;99.90
16140;DHT22;8175;49.326;12.690;2022-08-19T15:35:46;24.50;99.90
16140;DHT22;8175;49.326;12.690;2022-08-19T15:38:13;25.10;99.90
16140;DHT22;8175;49.326;12.690;2022-08-19T15:40:40;25.30;99.90
16140;DHT22;8175;49.326;12.690;2022-08-19T15:43:06;25.30;99.90
16140;DHT22;8175;49.326;12.690;2022-08-19T15:45:32;25.30;99.90
16140;DHT22;8175;49.326;12.690;2022-08-19T15:47:59;25.60;99.90
16140;DHT22;8175;49.326;12.690;2022-08-19T15:50:25;25.20;99.90
16140;DHT22;8175;49.326;12.690;2022-08-19T15:52:54;24.80;99.90